sensor_id;sensor_type;location;lat;lon;timestamp;P1;durP1;ratioP1;P2;durP2;ratioP2
16660;SDS011;8444;52.012;5.048;2024-02-28T00:00:57;14.73;;;9.43;;
16660;SDS011;8444;52.012;5.048;2024-02-28T00:03:22;14.10;;;9.57;;
16660;SDS011;8444;52.012;5.048;2024-02-28T00:05:48;16.90;;;9.63;;
16660;SDS011;8444;52.012;5.048;2024-02-28T00:08:14;14.87;;;8.50;;
16660;SDS011;8444;52.012;5.048;2024-02-28T00:10:39;12.03;;;8.07;;
16660;SDS011;8444;52.012;5.048;2024-02-28T00:13:04;16.87;;;8.97;;
16660;SDS011;8444;52.012;5.048;2024-02-28T00:15:29;13.17;;;8.77;;
16660;SDS011;8444;52.012;5.048;2024-02-28T00:17:55;11.17;;;8.27;;
16660;SDS011;8444;52.012;5.048;2024-02-28T00:20:20;14.30;;;8.77;;
16660;SDS011;8444;52.012;5.048;2024-02-28T00:22:45;13.20;;;8.37;;
16660;SDS011;8444;52.012;5.048;2024-02-28T00:25:10;12.47;;;8.87;;
16660;SDS011;8444;52.012;5.048;2024-02-28T00:27:36;11.23;;;8.70;;
16660;SDS011;8444;52.012;5.048;2024-02-28T00:30:02;12.57;;;9.03;;
16660;SDS011;8444;52.012;5.048;2024-02-28T00:32:29;12.87;;;8.30;;
16660;SDS011;8444;52.012;5.048;2024-02-28T00:34:55;13.27;;;9.53;;
16660;SDS011;8444;52.012;5.048;2024-02-28T00:37:22;10.90;;;7.67;;
16660;SDS011;8444;52.012;5.048;2024-02-28T00:39:47;11.07;;;8.57;;
16660;SDS011;8444;52.012;5.048;2024-02-28T00:42:13;11.87;;;8.33;;
16660;SDS011;8444;52.012;5.048;2024-02-28T00:44:38;11.93;;;8.23;;
16660;SDS011;8444;52.012;5.048;2024-02-28T00:47:03;13.97;;;9.03;;
16660;SDS011;8444;52.012;5.048;2024-02-28T00:49:28;16.37;;;9.80;;
16660;SDS011;8444;52.012;5.048;2024-02-28T00:51:54;12.03;;;8.50;;
16660;SDS011;8444;52.012;5.048;2024-02-28T00:54:19;12.57;;;8.27;;
16660;SDS011;8444;52.012;5.048;2024-02-28T00:56:46;15.53;;;9.73;;
16660;SDS011;8444;52.012;5.048;2024-02-28T00:59:11;18.33;;;9.63;;
16660;SDS011;8444;52.012;5.048;2024-02-28T01:01:37;12.37;;;9.03;;
16660;SDS011;8444;52.012;5.048;2024-02-28T01:04:03;13.23;;;8.80;;
16660;SDS011;8444;52.012;5.048;2024-02-28T01:06:28;14.07;;;9.43;;
16660;SDS011;8444;52.012;5.048;2024-02-28T01:08:53;13.23;;;8.83;;
16660;SDS011;8444;52.012;5.048;2024-02-28T01:11:18;11.50;;;8.17;;
16660;SDS011;8444;52.012;5.048;2024-02-28T01:13:44;11.83;;;9.07;;
16660;SDS011;8444;52.012;5.048;2024-02-28T01:16:09;13.10;;;10.03;;
16660;SDS011;8444;52.012;5.048;2024-02-28T01:18:34;13.13;;;8.67;;
16660;SDS011;8444;52.012;5.048;2024-02-28T01:20:59;15.93;;;9.27;;
16660;SDS011;8444;52.012;5.048;2024-02-28T01:23:25;15.23;;;9.77;;
16660;SDS011;8444;52.012;5.048;2024-02-28T01:25:50;15.23;;;9.60;;
16660;SDS011;8444;52.012;5.048;2024-02-28T01:28:15;18.70;;;9.77;;
16660;SDS011;8444;52.012;5.048;2024-02-28T01:30:40;14.87;;;10.17;;
16660;SDS011;8444;52.012;5.048;2024-02-28T01:33:05;15.50;;;10.00;;
16660;SDS011;8444;52.012;5.048;2024-02-28T01:35:30;14.90;;;10.27;;
16660;SDS011;8444;52.012;5.048;2024-02-28T01:37:56;16.63;;;10.33;;
16660;SDS011;8444;52.012;5.048;2024-02-28T01:40:21;16.03;;;10.73;;
16660;SDS011;8444;52.012;5.048;2024-02-28T01:42:46;15.87;;;10.17;;
16660;SDS011;8444;52.012;5.048;2024-02-28T01:45:13;18.23;;;11.67;;
16660;SDS011;8444;52.012;5.048;2024-02-28T01:47:38;16.43;;;11.17;;
16660;SDS011;8444;52.012;5.048;2024-02-28T01:50:04;16.17;;;9.83;;
16660;SDS011;8444;52.012;5.048;2024-02-28T01:52:29;17.53;;;11.20;;
16660;SDS011;8444;52.012;5.048;2024-02-28T01:54:55;14.20;;;10.87;;
16660;SDS011;8444;52.012;5.048;2024-02-28T01:57:21;18.20;;;10.20;;
16660;SDS011;8444;52.012;5.048;2024-02-28T01:59:46;17.90;;;11.67;;
16660;SDS011;8444;52.012;5.048;2024-02-28T02:02:11;19.27;;;11.67;;
16660;SDS011;8444;52.012;5.048;2024-02-28T02:04:37;14.63;;;10.80;;
16660;SDS011;8444;52.012;5.048;2024-02-28T02:07:02;16.10;;;10.53;;
16660;SDS011;8444;52.012;5.048;2024-02-28T02:09:27;18.73;;;10.97;;
16660;SDS011;8444;52.012;5.048;2024-02-28T02:11:52;16.87;;;10.73;;
16660;SDS011;8444;52.012;5.048;2024-02-28T02:14:18;15.40;;;10.33;;
16660;SDS011;8444;52.012;5.048;2024-02-28T02:16:43;16.10;;;11.10;;
16660;SDS011;8444;52.012;5.048;2024-02-28T02:19:08;19.03;;;11.60;;
16660;SDS011;8444;52.012;5.048;2024-02-28T02:21:37;16.70;;;11.00;;
16660;SDS011;8444;52.012;5.048;2024-02-28T02:24:06;20.43;;;12.83;;
16660;SDS011;8444;52.012;5.048;2024-02-28T02:26:31;15.03;;;9.97;;
16660;SDS011;8444;52.012;5.048;2024-02-28T02:28:56;26.27;;;12.10;;
16660;SDS011;8444;52.012;5.048;2024-02-28T02:31:22;17.90;;;11.60;;
16660;SDS011;8444;52.012;5.048;2024-02-28T02:33:47;18.87;;;12.13;;
16660;SDS011;8444;52.012;5.048;2024-02-28T02:36:13;19.07;;;12.10;;
16660;SDS011;8444;52.012;5.048;2024-02-28T02:38:38;16.83;;;11.47;;
16660;SDS011;8444;52.012;5.048;2024-02-28T02:41:03;19.07;;;11.97;;
16660;SDS011;8444;52.012;5.048;2024-02-28T02:43:28;20.03;;;12.67;;
16660;SDS011;8444;52.012;5.048;2024-02-28T02:45:54;18.10;;;11.20;;
16660;SDS011;8444;52.012;5.048;2024-02-28T02:48:19;18.93;;;11.73;;
16660;SDS011;8444;52.012;5.048;2024-02-28T02:50:44;23.77;;;13.00;;
16660;SDS011;8444;52.012;5.048;2024-02-28T02:53:10;17.07;;;11.93;;
16660;SDS011;8444;52.012;5.048;2024-02-28T02:55:36;21.80;;;13.10;;
16660;SDS011;8444;52.012;5.048;2024-02-28T02:58:01;21.03;;;12.30;;
16660;SDS011;8444;52.012;5.048;2024-02-28T03:00:27;19.03;;;12.10;;
16660;SDS011;8444;52.012;5.048;2024-02-28T03:02:52;22.83;;;14.20;;
16660;SDS011;8444;52.012;5.048;2024-02-28T03:05:18;26.70;;;14.80;;
16660;SDS011;8444;52.012;5.048;2024-02-28T03:07:43;21.77;;;14.10;;
16660;SDS011;8444;52.012;5.048;2024-02-28T03:10:08;27.27;;;15.33;;
16660;SDS011;8444;52.012;5.048;2024-02-28T03:12:35;25.30;;;16.87;;
16660;SDS011;8444;52.012;5.048;2024-02-28T03:15:00;31.00;;;17.70;;
16660;SDS011;8444;52.012;5.048;2024-02-28T03:17:25;25.37;;;16.83;;
16660;SDS011;8444;52.012;5.048;2024-02-28T03:19:50;25.07;;;16.50;;
16660;SDS011;8444;52.012;5.048;2024-02-28T03:22:16;27.07;;;15.97;;
16660;SDS011;8444;52.012;5.048;2024-02-28T03:24:41;22.07;;;16.00;;
16660;SDS011;8444;52.012;5.048;2024-02-28T03:27:06;25.17;;;15.73;;
16660;SDS011;8444;52.012;5.048;2024-02-28T03:29:31;26.00;;;17.20;;
16660;SDS011;8444;52.012;5.048;2024-02-28T03:31:58;23.23;;;15.87;;
16660;SDS011;8444;52.012;5.048;2024-02-28T03:34:23;23.43;;;15.83;;
16660;SDS011;8444;52.012;5.048;2024-02-28T03:36:48;24.33;;;16.40;;
16660;SDS011;8444;52.012;5.048;2024-02-28T03:39:13;27.77;;;16.33;;
16660;SDS011;8444;52.012;5.048;2024-02-28T03:41:39;22.93;;;15.20;;
16660;SDS011;8444;52.012;5.048;2024-02-28T03:44:04;21.57;;;14.73;;
16660;SDS011;8444;52.012;5.048;2024-02-28T03:46:29;25.07;;;16.67;;
16660;SDS011;8444;52.012;5.048;2024-02-28T03:48:55;26.10;;;16.80;;
16660;SDS011;8444;52.012;5.048;2024-02-28T03:51:20;23.77;;;15.73;;
16660;SDS011;8444;52.012;5.048;2024-02-28T03:53:45;28.40;;;16.90;;
16660;SDS011;8444;52.012;5.048;2024-02-28T03:56:10;24.30;;;15.63;;
16660;SDS011;8444;52.012;5.048;2024-02-28T03:58:36;22.00;;;15.70;;
16660;SDS011;8444;52.012;5.048;2024-02-28T04:01:02;25.77;;;15.03;;
16660;SDS011;8444;52.012;5.048;2024-02-28T04:03:27;26.97;;;17.13;;
16660;SDS011;8444;52.012;5.048;2024-02-28T04:05:52;27.07;;;16.13;;
16660;SDS011;8444;52.012;5.048;2024-02-28T04:08:17;23.40;;;14.87;;
16660;SDS011;8444;52.012;5.048;2024-02-28T04:10:42;24.57;;;15.23;;
16660;SDS011;8444;52.012;5.048;2024-02-28T04:13:08;25.80;;;15.47;;
16660;SDS011;8444;52.012;5.048;2024-02-28T04:15:34;23.13;;;15.57;;
16660;SDS011;8444;52.012;5.048;2024-02-28T04:17:59;20.97;;;14.80;;
16660;SDS011;8444;52.012;5.048;2024-02-28T04:20:24;20.77;;;14.57;;
16660;SDS011;8444;52.012;5.048;2024-02-28T04:22:49;20.90;;;14.83;;
16660;SDS011;8444;52.012;5.048;2024-02-28T04:25:15;22.37;;;14.97;;
16660;SDS011;8444;52.012;5.048;2024-02-28T04:27:40;21.40;;;14.13;;
16660;SDS011;8444;52.012;5.048;2024-02-28T04:30:05;24.20;;;15.37;;
16660;SDS011;8444;52.012;5.048;2024-02-28T04:32:30;24.07;;;14.47;;
16660;SDS011;8444;52.012;5.048;2024-02-28T04:34:56;21.27;;;13.30;;
16660;SDS011;8444;52.012;5.048;2024-02-28T04:37:21;22.47;;;13.80;;
16660;SDS011;8444;52.012;5.048;2024-02-28T04:39:46;23.27;;;13.90;;
16660;SDS011;8444;52.012;5.048;2024-02-28T04:42:12;22.33;;;13.97;;
16660;SDS011;8444;52.012;5.048;2024-02-28T04:44:37;18.03;;;12.00;;
16660;SDS011;8444;52.012;5.048;2024-02-28T04:47:03;23.73;;;14.13;;
16660;SDS011;8444;52.012;5.048;2024-02-28T04:49:28;17.60;;;12.03;;
16660;SDS011;8444;52.012;5.048;2024-02-28T04:51:53;20.17;;;12.70;;
16660;SDS011;8444;52.012;5.048;2024-02-28T04:54:18;21.40;;;13.43;;
16660;SDS011;8444;52.012;5.048;2024-02-28T04:56:44;22.93;;;14.73;;
16660;SDS011;8444;52.012;5.048;2024-02-28T04:59:11;21.27;;;13.03;;
16660;SDS011;8444;52.012;5.048;2024-02-28T05:01:36;22.80;;;12.80;;
16660;SDS011;8444;52.012;5.048;2024-02-28T05:04:04;21.63;;;13.70;;
16660;SDS011;8444;52.012;5.048;2024-02-28T05:06:29;21.47;;;12.83;;
16660;SDS011;8444;52.012;5.048;2024-02-28T05:08:54;22.30;;;13.37;;
16660;SDS011;8444;52.012;5.048;2024-02-28T05:11:19;19.40;;;12.33;;
16660;SDS011;8444;52.012;5.048;2024-02-28T05:13:45;25.93;;;14.77;;
16660;SDS011;8444;52.012;5.048;2024-02-28T05:16:13;25.77;;;13.87;;
16660;SDS011;8444;52.012;5.048;2024-02-28T05:18:39;21.60;;;13.30;;
16660;SDS011;8444;52.012;5.048;2024-02-28T05:21:04;23.30;;;13.97;;
16660;SDS011;8444;52.012;5.048;2024-02-28T05:23:29;22.70;;;13.13;;
16660;SDS011;8444;52.012;5.048;2024-02-28T05:25:55;24.90;;;13.50;;
16660;SDS011;8444;52.012;5.048;2024-02-28T05:28:21;20.57;;;13.73;;
16660;SDS011;8444;52.012;5.048;2024-02-28T05:30:46;24.00;;;13.00;;
16660;SDS011;8444;52.012;5.048;2024-02-28T05:33:11;21.10;;;13.60;;
16660;SDS011;8444;52.012;5.048;2024-02-28T05:35:36;23.63;;;12.63;;
16660;SDS011;8444;52.012;5.048;2024-02-28T05:38:01;23.83;;;12.77;;
16660;SDS011;8444;52.012;5.048;2024-02-28T05:40:27;18.97;;;13.63;;
16660;SDS011;8444;52.012;5.048;2024-02-28T05:42:53;20.83;;;12.47;;
16660;SDS011;8444;52.012;5.048;2024-02-28T05:45:18;20.47;;;13.50;;
16660;SDS011;8444;52.012;5.048;2024-02-28T05:47:43;22.60;;;13.63;;
16660;SDS011;8444;52.012;5.048;2024-02-28T05:50:08;23.33;;;14.00;;
16660;SDS011;8444;52.012;5.048;2024-02-28T05:52:35;25.83;;;13.43;;
16660;SDS011;8444;52.012;5.048;2024-02-28T05:55:00;22.37;;;13.57;;
16660;SDS011;8444;52.012;5.048;2024-02-28T05:57:25;21.57;;;13.37;;
16660;SDS011;8444;52.012;5.048;2024-02-28T05:59:50;21.20;;;13.97;;
16660;SDS011;8444;52.012;5.048;2024-02-28T06:02:15;21.67;;;13.53;;
16660;SDS011;8444;52.012;5.048;2024-02-28T06:04:41;19.57;;;12.33;;
16660;SDS011;8444;52.012;5.048;2024-02-28T06:07:06;22.93;;;13.83;;
16660;SDS011;8444;52.012;5.048;2024-02-28T06:09:31;20.43;;;12.67;;
16660;SDS011;8444;52.012;5.048;2024-02-28T06:11:56;18.07;;;12.80;;
16660;SDS011;8444;52.012;5.048;2024-02-28T06:14:21;17.30;;;12.10;;
16660;SDS011;8444;52.012;5.048;2024-02-28T06:16:47;23.07;;;12.83;;
16660;SDS011;8444;52.012;5.048;2024-02-28T06:19:12;20.47;;;13.23;;
16660;SDS011;8444;52.012;5.048;2024-02-28T06:21:37;18.13;;;12.57;;
16660;SDS011;8444;52.012;5.048;2024-02-28T06:24:03;20.20;;;12.87;;
16660;SDS011;8444;52.012;5.048;2024-02-28T06:26:29;16.50;;;12.27;;
16660;SDS011;8444;52.012;5.048;2024-02-28T06:28:56;18.87;;;12.63;;
16660;SDS011;8444;52.012;5.048;2024-02-28T06:31:26;19.73;;;13.27;;
16660;SDS011;8444;52.012;5.048;2024-02-28T06:33:51;15.83;;;12.57;;
16660;SDS011;8444;52.012;5.048;2024-02-28T06:36:16;22.43;;;13.93;;
16660;SDS011;8444;52.012;5.048;2024-02-28T06:38:41;18.67;;;12.90;;
16660;SDS011;8444;52.012;5.048;2024-02-28T06:41:07;16.17;;;11.67;;
16660;SDS011;8444;52.012;5.048;2024-02-28T06:43:35;16.00;;;13.00;;
16660;SDS011;8444;52.012;5.048;2024-02-28T06:46:01;18.57;;;12.47;;
16660;SDS011;8444;52.012;5.048;2024-02-28T06:48:26;18.30;;;12.90;;
16660;SDS011;8444;52.012;5.048;2024-02-28T06:50:52;18.87;;;12.87;;
16660;SDS011;8444;52.012;5.048;2024-02-28T06:53:17;26.13;;;13.93;;
16660;SDS011;8444;52.012;5.048;2024-02-28T06:55:42;16.20;;;12.53;;
16660;SDS011;8444;52.012;5.048;2024-02-28T06:58:07;20.93;;;12.53;;
16660;SDS011;8444;52.012;5.048;2024-02-28T07:00:32;18.20;;;13.30;;
16660;SDS011;8444;52.012;5.048;2024-02-28T07:02:58;17.30;;;12.67;;
16660;SDS011;8444;52.012;5.048;2024-02-28T07:05:23;23.27;;;13.13;;
16660;SDS011;8444;52.012;5.048;2024-02-28T07:07:49;17.03;;;12.40;;
16660;SDS011;8444;52.012;5.048;2024-02-28T07:10:14;17.63;;;13.67;;
16660;SDS011;8444;52.012;5.048;2024-02-28T07:12:39;22.20;;;14.03;;
16660;SDS011;8444;52.012;5.048;2024-02-28T07:15:05;19.33;;;14.03;;
16660;SDS011;8444;52.012;5.048;2024-02-28T07:17:31;23.60;;;13.73;;
16660;SDS011;8444;52.012;5.048;2024-02-28T07:19:56;19.37;;;14.23;;
16660;SDS011;8444;52.012;5.048;2024-02-28T07:22:21;20.33;;;13.47;;
16660;SDS011;8444;52.012;5.048;2024-02-28T07:24:46;22.63;;;15.70;;
16660;SDS011;8444;52.012;5.048;2024-02-28T07:27:11;22.73;;;13.93;;
16660;SDS011;8444;52.012;5.048;2024-02-28T07:29:37;23.90;;;15.03;;
16660;SDS011;8444;52.012;5.048;2024-02-28T07:32:02;20.30;;;14.57;;
16660;SDS011;8444;52.012;5.048;2024-02-28T07:34:27;25.13;;;15.13;;
16660;SDS011;8444;52.012;5.048;2024-02-28T07:36:53;27.70;;;15.50;;
16660;SDS011;8444;52.012;5.048;2024-02-28T07:39:18;22.97;;;15.73;;
16660;SDS011;8444;52.012;5.048;2024-02-28T07:41:43;21.13;;;14.77;;
16660;SDS011;8444;52.012;5.048;2024-02-28T07:44:08;19.73;;;13.43;;
16660;SDS011;8444;52.012;5.048;2024-02-28T07:46:34;21.97;;;14.10;;
16660;SDS011;8444;52.012;5.048;2024-02-28T07:48:59;22.93;;;14.57;;
16660;SDS011;8444;52.012;5.048;2024-02-28T07:51:25;20.60;;;14.87;;
16660;SDS011;8444;52.012;5.048;2024-02-28T07:53:51;23.33;;;14.67;;
16660;SDS011;8444;52.012;5.048;2024-02-28T07:56:16;19.27;;;13.37;;
16660;SDS011;8444;52.012;5.048;2024-02-28T07:58:42;19.90;;;15.23;;
16660;SDS011;8444;52.012;5.048;2024-02-28T08:01:07;20.47;;;13.70;;
16660;SDS011;8444;52.012;5.048;2024-02-28T08:03:33;18.17;;;14.17;;
16660;SDS011;8444;52.012;5.048;2024-02-28T08:05:58;23.50;;;15.40;;
16660;SDS011;8444;52.012;5.048;2024-02-28T08:08:23;19.00;;;14.23;;
16660;SDS011;8444;52.012;5.048;2024-02-28T08:10:48;25.00;;;15.40;;
16660;SDS011;8444;52.012;5.048;2024-02-28T08:13:14;24.03;;;15.23;;
16660;SDS011;8444;52.012;5.048;2024-02-28T08:15:39;20.23;;;13.50;;
16660;SDS011;8444;52.012;5.048;2024-02-28T08:18:04;18.53;;;13.77;;
16660;SDS011;8444;52.012;5.048;2024-02-28T08:20:29;25.90;;;14.57;;
16660;SDS011;8444;52.012;5.048;2024-02-28T08:22:55;21.40;;;13.23;;
16660;SDS011;8444;52.012;5.048;2024-02-28T08:25:22;22.87;;;14.10;;
16660;SDS011;8444;52.012;5.048;2024-02-28T08:27:47;23.40;;;14.10;;
16660;SDS011;8444;52.012;5.048;2024-02-28T08:30:13;21.63;;;12.73;;
16660;SDS011;8444;52.012;5.048;2024-02-28T08:32:38;17.57;;;12.70;;
16660;SDS011;8444;52.012;5.048;2024-02-28T08:35:03;21.03;;;12.30;;
16660;SDS011;8444;52.012;5.048;2024-02-28T08:37:29;18.20;;;12.63;;
16660;SDS011;8444;52.012;5.048;2024-02-28T08:39:54;20.30;;;13.37;;
16660;SDS011;8444;52.012;5.048;2024-02-28T08:42:24;15.90;;;12.70;;
16660;SDS011;8444;52.012;5.048;2024-02-28T08:44:49;17.40;;;12.13;;
16660;SDS011;8444;52.012;5.048;2024-02-28T08:47:14;17.03;;;12.97;;
16660;SDS011;8444;52.012;5.048;2024-02-28T08:49:40;20.33;;;12.03;;
16660;SDS011;8444;52.012;5.048;2024-02-28T08:52:05;15.40;;;12.17;;
16660;SDS011;8444;52.012;5.048;2024-02-28T08:54:30;20.40;;;13.07;;
16660;SDS011;8444;52.012;5.048;2024-02-28T08:56:55;20.70;;;13.20;;
16660;SDS011;8444;52.012;5.048;2024-02-28T08:59:21;18.47;;;12.00;;
16660;SDS011;8444;52.012;5.048;2024-02-28T09:01:47;17.10;;;13.40;;
16660;SDS011;8444;52.012;5.048;2024-02-28T09:04:12;23.53;;;13.03;;
16660;SDS011;8444;52.012;5.048;2024-02-28T09:06:37;16.87;;;12.43;;
16660;SDS011;8444;52.012;5.048;2024-02-28T09:09:02;17.83;;;12.40;;
16660;SDS011;8444;52.012;5.048;2024-02-28T09:11:28;18.17;;;13.87;;
16660;SDS011;8444;52.012;5.048;2024-02-28T09:13:54;27.30;;;12.73;;
16660;SDS011;8444;52.012;5.048;2024-02-28T09:16:19;20.47;;;12.97;;
16660;SDS011;8444;52.012;5.048;2024-02-28T09:18:45;22.43;;;13.27;;
16660;SDS011;8444;52.012;5.048;2024-02-28T09:21:10;17.77;;;12.97;;
16660;SDS011;8444;52.012;5.048;2024-02-28T09:23:35;25.60;;;14.37;;
16660;SDS011;8444;52.012;5.048;2024-02-28T09:26:04;20.33;;;12.83;;
16660;SDS011;8444;52.012;5.048;2024-02-28T09:28:29;18.90;;;12.50;;
16660;SDS011;8444;52.012;5.048;2024-02-28T09:30:54;19.90;;;12.63;;
16660;SDS011;8444;52.012;5.048;2024-02-28T09:33:19;23.40;;;13.83;;
16660;SDS011;8444;52.012;5.048;2024-02-28T09:35:45;21.43;;;12.73;;
16660;SDS011;8444;52.012;5.048;2024-02-28T09:38:10;18.90;;;12.90;;
16660;SDS011;8444;52.012;5.048;2024-02-28T09:40:35;15.60;;;11.80;;
16660;SDS011;8444;52.012;5.048;2024-02-28T09:43:01;16.23;;;12.30;;
16660;SDS011;8444;52.012;5.048;2024-02-28T09:45:27;16.30;;;12.57;;
16660;SDS011;8444;52.012;5.048;2024-02-28T09:47:55;22.20;;;13.33;;
16660;SDS011;8444;52.012;5.048;2024-02-28T09:50:20;21.63;;;14.33;;
16660;SDS011;8444;52.012;5.048;2024-02-28T09:52:46;19.13;;;13.23;;
16660;SDS011;8444;52.012;5.048;2024-02-28T09:55:12;27.63;;;14.07;;
16660;SDS011;8444;52.012;5.048;2024-02-28T09:57:37;18.57;;;12.63;;
16660;SDS011;8444;52.012;5.048;2024-02-28T10:00:02;17.20;;;13.13;;
16660;SDS011;8444;52.012;5.048;2024-02-28T10:02:28;18.47;;;13.00;;
16660;SDS011;8444;52.012;5.048;2024-02-28T10:04:53;20.38;;;13.38;;
16660;SDS011;8444;52.012;5.048;2024-02-28T10:07:20;23.33;;;12.33;;
16660;SDS011;8444;52.012;5.048;2024-02-28T10:09:46;20.27;;;12.83;;
16660;SDS011;8444;52.012;5.048;2024-02-28T10:12:12;19.83;;;12.70;;
16660;SDS011;8444;52.012;5.048;2024-02-28T10:14:37;20.15;;;12.75;;
16660;SDS011;8444;52.012;5.048;2024-02-28T10:17:03;20.95;;;13.60;;
16660;SDS011;8444;52.012;5.048;2024-02-28T10:19:28;23.52;;;13.93;;
16660;SDS011;8444;52.012;5.048;2024-02-28T10:21:54;17.13;;;12.67;;
16660;SDS011;8444;52.012;5.048;2024-02-28T10:24:20;16.67;;;12.53;;
16660;SDS011;8444;52.012;5.048;2024-02-28T10:26:46;21.35;;;13.48;;
16660;SDS011;8444;52.012;5.048;2024-02-28T10:29:23;21.20;;;13.18;;
16660;SDS011;8444;52.012;5.048;2024-02-28T10:31:49;24.20;;;12.85;;
16660;SDS011;8444;52.012;5.048;2024-02-28T10:34:18;19.23;;;12.20;;
16660;SDS011;8444;52.012;5.048;2024-02-28T10:36:46;22.75;;;12.95;;
16660;SDS011;8444;52.012;5.048;2024-02-28T10:39:11;16.48;;;12.50;;
16660;SDS011;8444;52.012;5.048;2024-02-28T10:41:40;18.55;;;13.05;;
16660;SDS011;8444;52.012;5.048;2024-02-28T10:44:05;22.08;;;12.30;;
16660;SDS011;8444;52.012;5.048;2024-02-28T10:46:30;19.73;;;13.55;;
16660;SDS011;8444;52.012;5.048;2024-02-28T10:48:55;17.48;;;13.23;;
16660;SDS011;8444;52.012;5.048;2024-02-28T10:51:25;21.65;;;12.65;;
16660;SDS011;8444;52.012;5.048;2024-02-28T10:53:55;17.88;;;11.70;;
16660;SDS011;8444;52.012;5.048;2024-02-28T10:56:24;19.33;;;12.55;;
16660;SDS011;8444;52.012;5.048;2024-02-28T10:58:52;21.52;;;13.75;;
16660;SDS011;8444;52.012;5.048;2024-02-28T11:01:17;23.10;;;12.85;;
16660;SDS011;8444;52.012;5.048;2024-02-28T11:03:43;24.85;;;14.45;;
16660;SDS011;8444;52.012;5.048;2024-02-28T11:06:16;20.83;;;14.00;;
16660;SDS011;8444;52.012;5.048;2024-02-28T11:08:45;25.67;;;13.85;;
16660;SDS011;8444;52.012;5.048;2024-02-28T11:11:13;22.88;;;14.15;;
16660;SDS011;8444;52.012;5.048;2024-02-28T11:13:38;22.35;;;13.30;;
16660;SDS011;8444;52.012;5.048;2024-02-28T11:16:10;23.50;;;13.98;;
16660;SDS011;8444;52.012;5.048;2024-02-28T11:18:35;25.00;;;14.68;;
16660;SDS011;8444;52.012;5.048;2024-02-28T11:21:01;23.45;;;14.27;;
16660;SDS011;8444;52.012;5.048;2024-02-28T11:23:35;22.63;;;13.73;;
16660;SDS011;8444;52.012;5.048;2024-02-28T11:26:01;24.92;;;14.90;;
16660;SDS011;8444;52.012;5.048;2024-02-28T11:28:28;20.55;;;13.38;;
16660;SDS011;8444;52.012;5.048;2024-02-28T11:30:53;18.98;;;14.48;;
16660;SDS011;8444;52.012;5.048;2024-02-28T11:33:19;19.33;;;12.88;;
16660;SDS011;8444;52.012;5.048;2024-02-28T11:35:44;19.25;;;13.43;;
16660;SDS011;8444;52.012;5.048;2024-02-28T11:38:09;20.15;;;13.57;;
16660;SDS011;8444;52.012;5.048;2024-02-28T11:40:37;19.08;;;12.13;;
16660;SDS011;8444;52.012;5.048;2024-02-28T11:43:02;19.50;;;13.40;;
16660;SDS011;8444;52.012;5.048;2024-02-28T11:45:28;19.38;;;12.80;;
16660;SDS011;8444;52.012;5.048;2024-02-28T11:47:55;17.92;;;12.80;;
16660;SDS011;8444;52.012;5.048;2024-02-28T11:50:20;22.48;;;13.02;;
16660;SDS011;8444;52.012;5.048;2024-02-28T11:52:45;21.23;;;11.95;;
16660;SDS011;8444;52.012;5.048;2024-02-28T11:55:11;21.73;;;11.60;;
16660;SDS011;8444;52.012;5.048;2024-02-28T11:57:36;17.25;;;11.52;;
16660;SDS011;8444;52.012;5.048;2024-02-28T12:00:05;15.73;;;11.05;;
16660;SDS011;8444;52.012;5.048;2024-02-28T12:02:31;15.30;;;11.15;;
16660;SDS011;8444;52.012;5.048;2024-02-28T12:05:00;19.15;;;10.82;;
16660;SDS011;8444;52.012;5.048;2024-02-28T12:07:25;21.17;;;12.02;;
16660;SDS011;8444;52.012;5.048;2024-02-28T12:09:50;14.98;;;11.10;;
16660;SDS011;8444;52.012;5.048;2024-02-28T12:12:15;20.23;;;11.93;;
16660;SDS011;8444;52.012;5.048;2024-02-28T12:14:41;17.33;;;11.27;;
16660;SDS011;8444;52.012;5.048;2024-02-28T12:17:08;20.15;;;12.32;;
16660;SDS011;8444;52.012;5.048;2024-02-28T12:19:34;20.25;;;11.50;;
16660;SDS011;8444;52.012;5.048;2024-02-28T12:21:59;16.88;;;11.27;;
16660;SDS011;8444;52.012;5.048;2024-02-28T12:24:25;16.63;;;10.68;;
16660;SDS011;8444;52.012;5.048;2024-02-28T12:26:50;19.90;;;10.85;;
16660;SDS011;8444;52.012;5.048;2024-02-28T12:29:15;16.38;;;10.35;;
16660;SDS011;8444;52.012;5.048;2024-02-28T12:31:41;16.42;;;10.20;;
16660;SDS011;8444;52.012;5.048;2024-02-28T12:34:06;17.52;;;10.50;;
16660;SDS011;8444;52.012;5.048;2024-02-28T12:36:31;18.17;;;11.52;;
16660;SDS011;8444;52.012;5.048;2024-02-28T12:38:57;18.35;;;11.35;;
16660;SDS011;8444;52.012;5.048;2024-02-28T12:41:24;19.92;;;11.68;;
16660;SDS011;8444;52.012;5.048;2024-02-28T12:43:50;15.10;;;10.65;;
16660;SDS011;8444;52.012;5.048;2024-02-28T12:46:15;19.83;;;10.88;;
16660;SDS011;8444;52.012;5.048;2024-02-28T12:48:40;18.08;;;10.60;;
16660;SDS011;8444;52.012;5.048;2024-02-28T12:51:06;19.17;;;10.52;;
16660;SDS011;8444;52.012;5.048;2024-02-28T12:53:33;16.50;;;11.38;;
16660;SDS011;8444;52.012;5.048;2024-02-28T12:55:58;23.48;;;11.95;;
16660;SDS011;8444;52.012;5.048;2024-02-28T12:58:24;20.45;;;11.80;;
16660;SDS011;8444;52.012;5.048;2024-02-28T13:00:49;17.73;;;10.93;;
16660;SDS011;8444;52.012;5.048;2024-02-28T13:03:14;17.40;;;10.43;;
16660;SDS011;8444;52.012;5.048;2024-02-28T13:05:41;19.52;;;11.45;;
16660;SDS011;8444;52.012;5.048;2024-02-28T13:08:06;18.20;;;11.15;;
16660;SDS011;8444;52.012;5.048;2024-02-28T13:10:31;22.08;;;11.05;;
16660;SDS011;8444;52.012;5.048;2024-02-28T13:12:59;20.83;;;10.52;;
16660;SDS011;8444;52.012;5.048;2024-02-28T13:15:24;17.33;;;9.88;;
16660;SDS011;8444;52.012;5.048;2024-02-28T13:17:49;18.92;;;12.32;;
16660;SDS011;8444;52.012;5.048;2024-02-28T13:20:15;22.15;;;12.82;;
16660;SDS011;8444;52.012;5.048;2024-02-28T13:22:41;25.02;;;13.77;;
16660;SDS011;8444;52.012;5.048;2024-02-28T13:25:06;21.40;;;12.60;;
16660;SDS011;8444;52.012;5.048;2024-02-28T13:27:32;20.88;;;13.88;;
16660;SDS011;8444;52.012;5.048;2024-02-28T13:29:57;24.15;;;16.25;;
16660;SDS011;8444;52.012;5.048;2024-02-28T13:32:22;28.10;;;15.10;;
16660;SDS011;8444;52.012;5.048;2024-02-28T13:34:47;23.13;;;13.25;;
16660;SDS011;8444;52.012;5.048;2024-02-28T13:37:13;22.33;;;15.43;;
16660;SDS011;8444;52.012;5.048;2024-02-28T13:39:38;26.60;;;14.95;;
16660;SDS011;8444;52.012;5.048;2024-02-28T13:42:03;23.95;;;14.23;;
16660;SDS011;8444;52.012;5.048;2024-02-28T13:44:31;20.38;;;12.75;;
16660;SDS011;8444;52.012;5.048;2024-02-28T13:46:56;19.50;;;12.50;;
16660;SDS011;8444;52.012;5.048;2024-02-28T13:49:21;19.13;;;12.13;;
16660;SDS011;8444;52.012;5.048;2024-02-28T13:51:47;19.33;;;12.25;;
16660;SDS011;8444;52.012;5.048;2024-02-28T13:54:14;23.77;;;14.73;;
16660;SDS011;8444;52.012;5.048;2024-02-28T13:56:40;18.58;;;12.55;;
16660;SDS011;8444;52.012;5.048;2024-02-28T13:59:05;20.10;;;13.77;;
16660;SDS011;8444;52.012;5.048;2024-02-28T14:01:31;18.42;;;13.65;;
16660;SDS011;8444;52.012;5.048;2024-02-28T14:03:56;21.13;;;13.10;;
16660;SDS011;8444;52.012;5.048;2024-02-28T14:06:21;17.45;;;11.80;;
16660;SDS011;8444;52.012;5.048;2024-02-28T14:08:47;20.35;;;10.95;;
16660;SDS011;8444;52.012;5.048;2024-02-28T14:11:12;20.23;;;11.70;;
16660;SDS011;8444;52.012;5.048;2024-02-28T14:13:37;20.13;;;11.30;;
16660;SDS011;8444;52.012;5.048;2024-02-28T14:16:04;17.75;;;11.55;;
16660;SDS011;8444;52.012;5.048;2024-02-28T14:18:29;16.77;;;11.55;;
16660;SDS011;8444;52.012;5.048;2024-02-28T14:20:55;17.85;;;12.10;;
16660;SDS011;8444;52.012;5.048;2024-02-28T14:23:20;18.45;;;12.15;;
16660;SDS011;8444;52.012;5.048;2024-02-28T14:25:46;20.92;;;12.07;;